createdAt,value
2022-09-30T00:01:32.372Z,9.60
2022-09-30T00:06:31.439Z,9.60
2022-09-30T00:11:31.787Z,9.60
2022-09-30T00:16:33.063Z,9.60
2022-09-30T00:21:31.302Z,9.50
2022-09-30T00:26:29.373Z,9.50
2022-09-30T00:31:29.489Z,9.50
2022-09-30T00:36:29.062Z,9.50
2022-09-30T00:41:27.587Z,9.40
2022-09-30T00:46:33.867Z,9.40
2022-09-30T00:51:36.232Z,9.40
2022-09-30T00:56:41.400Z,9.30
2022-09-30T01:01:41.668Z,9.30
2022-09-30T01:06:42.302Z,9.20
2022-09-30T01:11:40.390Z,9.20
2022-09-30T01:16:51.871Z,9.20
2022-09-30T01:22:07.355Z,9.10
2022-09-30T01:27:24.928Z,9.10
2022-09-30T01:32:38.270Z,9.00
2022-09-30T01:37:45.866Z,9.10
2022-09-30T01:42:51.740Z,9.00
2022-09-30T01:47:55.453Z,9.00
2022-09-30T01:53:02.756Z,8.90
2022-09-30T01:58:06.730Z,8.90
2022-09-30T02:03:10.334Z,9.00
2022-09-30T02:08:14.474Z,8.80
2022-09-30T02:13:18.597Z,8.70
2022-09-30T02:18:23.382Z,8.70
2022-09-30T02:23:27.843Z,8.60
2022-09-30T02:28:30.405Z,8.70
2022-09-30T02:33:34.288Z,8.70
2022-09-30T02:38:37.133Z,8.60
2022-09-30T02:43:35.998Z,8.60
2022-09-30T02:49:03.283Z,8.60
2022-09-30T02:54:06.866Z,8.60
2022-09-30T02:59:05.598Z,8.50
2022-09-30T03:04:08.982Z,8.50
2022-09-30T03:09:07.833Z,8.50
2022-09-30T03:14:40.455Z,8.50
2022-09-30T03:19:55.465Z,8.50
2022-09-30T03:25:09.577Z,8.60
2022-09-30T03:30:11.373Z,8.50
2022-09-30T03:35:22.393Z,8.40
2022-09-30T03:40:31.764Z,8.30
2022-09-30T03:45:35.839Z,8.30
2022-09-30T03:50:37.960Z,8.30
2022-09-30T03:55:47.752Z,8.30
2022-09-30T04:00:50.553Z,8.20
2022-09-30T04:05:50.507Z,8.20
2022-09-30T04:10:48.487Z,8.20
2022-09-30T04:15:54.149Z,8.20
2022-09-30T04:20:53.712Z,8.20
2022-09-30T04:25:54.748Z,8.10
2022-09-30T04:30:52.939Z,8.10
2022-09-30T04:35:56.098Z,8.10
2022-09-30T04:40:55.715Z,8.10
2022-09-30T04:45:54.530Z,8.20
2022-09-30T04:50:53.072Z,8.20
2022-09-30T04:55:52.367Z,8.30
2022-09-30T05:00:50.427Z,8.10
2022-09-30T05:05:49.494Z,8.00
2022-09-30T05:10:57.214Z,7.90
2022-09-30T05:15:55.171Z,8.00
2022-09-30T05:20:54.376Z,8.00
2022-09-30T05:25:53.126Z,8.00
2022-09-30T05:30:57.902Z,8.00
2022-09-30T05:35:56.129Z,8.10
2022-09-30T05:40:55.307Z,8.20
2022-09-30T05:45:55.799Z,8.20
2022-09-30T05:50:55.918Z,8.30
2022-09-30T05:55:53.930Z,8.30
2022-09-30T06:00:51.909Z,8.30
2022-09-30T06:05:56.784Z,8.40
2022-09-30T06:10:54.985Z,8.50
2022-09-30T06:15:59.614Z,8.60
2022-09-30T06:20:59.786Z,8.70
2022-09-30T06:25:58.088Z,8.80
2022-09-30T06:30:56.408Z,8.90
2022-09-30T06:35:54.385Z,9.10
2022-09-30T06:40:53.788Z,9.30
2022-09-30T06:45:52.618Z,9.50
2022-09-30T06:51:00.536Z,9.80
2022-09-30T06:56:01.408Z,10.00
2022-09-30T07:01:01.623Z,10.10
2022-09-30T07:06:01.469Z,10.30
2022-09-30T07:11:02.252Z,10.50
2022-09-30T07:16:00.392Z,10.70
2022-09-30T07:20:58.737Z,10.80
2022-09-30T07:25:58.838Z,11.10
2022-09-30T07:31:19.822Z,11.20
2022-09-30T07:36:18.813Z,11.40
2022-09-30T07:41:21.826Z,11.60
2022-09-30T07:46:24.436Z,11.90
2022-09-30T07:51:24.642Z,12.00
2022-09-30T07:56:23.762Z,12.20
2022-09-30T08:01:24.349Z,12.60
2022-09-30T08:06:23.312Z,13.10
2022-09-30T08:11:22.074Z,13.60
2022-09-30T08:16:20.773Z,14.10
2022-09-30T08:21:20.181Z,14.80
2022-09-30T08:26:19.254Z,15.70
2022-09-30T08:31:19.571Z,16.90
2022-09-30T08:36:20.299Z,17.80
2022-09-30T08:41:30.613Z,18.50
2022-09-30T08:46:41.812Z,19.30
2022-09-30T08:51:45.921Z,20.40
2022-09-30T08:56:45.614Z,21.50
2022-09-30T09:01:48.305Z,22.50
2022-09-30T09:06:55.052Z,23.30
2022-09-30T09:12:06.898Z,23.90
2022-09-30T09:17:16.223Z,23.90
2022-09-30T09:22:16.905Z,24.60
2022-09-30T09:27:21.734Z,25.70
2022-09-30T09:32:20.212Z,27.10
2022-09-30T09:37:46.178Z,27.60
2022-09-30T09:43:08.463Z,27.20
2022-09-30T09:48:12.297Z,26.20
2022-09-30T09:53:32.143Z,27.40
2022-09-30T09:58:30.193Z,28.90
2022-09-30T10:03:28.718Z,29.40
2022-09-30T10:08:29.088Z,28.60
2022-09-30T10:13:30.537Z,28.60
2022-09-30T10:18:30.900Z,29.70
2022-09-30T10:23:32.873Z,30.80
2022-09-30T10:28:33.278Z,32.00
2022-09-30T10:33:37.733Z,33.30
2022-09-30T10:43:46.835Z,33.20
2022-09-30T10:48:51.289Z,33.20
2022-09-30T10:53:50.599Z,33.10
2022-09-30T10:58:52.238Z,32.70
2022-09-30T11:04:02.700Z,32.40
2022-09-30T11:09:07.661Z,32.70
2022-09-30T11:14:21.733Z,32.20
2022-09-30T11:19:27.947Z,31.80
2022-09-30T11:24:35.718Z,30.10
2022-09-30T11:30:02.676Z,27.80
2022-09-30T11:35:09.083Z,26.10
2022-09-30T11:40:30.439Z,25.40
2022-09-30T11:45:40.154Z,24.30
2022-09-30T11:50:57.967Z,23.50
2022-09-30T11:56:10.440Z,23.70
2022-09-30T12:01:18.231Z,23.90
2022-09-30T12:06:26.531Z,22.90
2022-09-30T12:11:34.923Z,22.40
2022-09-30T12:16:35.614Z,22.10
2022-09-30T12:21:39.276Z,22.00
2022-09-30T12:26:41.505Z,22.10
2022-09-30T12:32:01.180Z,21.70
2022-09-30T12:37:10.731Z,21.50
2022-09-30T12:42:33.197Z,21.00
2022-09-30T12:47:36.728Z,20.50
2022-09-30T12:52:37.053Z,20.40
2022-09-30T12:57:41.530Z,20.50
2022-09-30T13:02:41.961Z,20.20
2022-09-30T13:08:25.903Z,20.00
2022-09-30T13:13:26.542Z,19.70
2022-09-30T13:19:10.210Z,19.70
2022-09-30T13:24:10.338Z,19.80
2022-09-30T13:29:39.383Z,19.50
2022-09-30T13:34:56.632Z,19.40
2022-09-30T13:39:57.750Z,19.30
2022-09-30T13:45:03.505Z,19.60
2022-09-30T13:50:07.795Z,19.50
2022-09-30T13:55:12.218Z,19.20
2022-09-30T14:00:16.136Z,19.00
2022-09-30T14:05:40.460Z,19.20
2022-09-30T14:11:03.490Z,19.40
2022-09-30T14:16:22.865Z,19.30
2022-09-30T14:21:36.013Z,19.10
2022-09-30T14:27:15.660Z,19.00
2022-09-30T14:32:18.679Z,18.80
2022-09-30T14:37:20.369Z,19.10
2022-09-30T14:42:29.539Z,19.10
2022-09-30T14:47:27.942Z,19.50
2022-09-30T14:52:36.953Z,19.50
2022-09-30T14:57:36.362Z,19.20
2022-09-30T15:02:34.435Z,18.90
2022-09-30T15:07:32.441Z,18.80
2022-09-30T15:12:30.515Z,19.30
2022-09-30T15:17:32.003Z,19.40
2022-09-30T15:22:30.935Z,20.60
2022-09-30T15:27:32.255Z,23.00
2022-09-30T15:32:34.429Z,25.00
2022-09-30T15:37:34.254Z,27.00
2022-09-30T15:42:36.213Z,28.30
2022-09-30T15:47:54.310Z,28.70
2022-09-30T15:52:52.310Z,28.10
2022-09-30T15:57:51.529Z,26.20
2022-09-30T16:02:51.328Z,25.00
2022-09-30T16:07:49.492Z,23.90
2022-09-30T16:12:49.432Z,23.70
2022-09-30T16:17:50.730Z,24.50
2022-09-30T16:22:54.336Z,23.70
2022-09-30T16:27:58.531Z,22.30
2022-09-30T16:33:03.540Z,21.00
2022-09-30T16:38:03.049Z,20.00
2022-09-30T16:43:04.326Z,19.20
2022-09-30T16:48:15.425Z,18.50
2022-09-30T16:53:13.844Z,18.00
2022-09-30T16:58:13.045Z,17.60
2022-09-30T17:03:13.962Z,17.20
2022-09-30T17:08:14.038Z,16.90
2022-09-30T17:13:12.088Z,16.60
2022-09-30T17:18:12.626Z,16.40
2022-09-30T17:23:10.540Z,16.10
2022-09-30T17:28:08.995Z,16.00
2022-09-30T17:33:06.901Z,15.70
2022-09-30T17:38:08.519Z,15.60
2022-09-30T17:43:10.901Z,15.40
2022-09-30T17:48:09.364Z,15.20
2022-09-30T17:53:08.940Z,15.20
2022-09-30T17:58:09.131Z,15.00
2022-09-30T18:03:09.262Z,14.90
2022-09-30T18:08:08.721Z,14.80
2022-09-30T18:13:06.921Z,14.70
2022-09-30T18:18:05.005Z,14.60
2022-09-30T18:23:03.046Z,14.50
2022-09-30T18:28:02.802Z,14.50
2022-09-30T18:33:00.847Z,14.40
2022-09-30T18:37:58.826Z,14.40
2022-09-30T18:42:58.626Z,14.30
2022-09-30T18:47:59.628Z,14.20
2022-09-30T18:52:58.368Z,14.10
2022-09-30T18:57:57.829Z,14.00
2022-09-30T19:02:57.826Z,13.90
2022-09-30T19:07:56.182Z,13.80
2022-09-30T19:12:54.157Z,13.70
2022-09-30T19:17:53.643Z,13.60
2022-09-30T19:22:53.270Z,13.60
2022-09-30T19:27:51.353Z,13.60
2022-09-30T19:32:53.309Z,13.60
2022-09-30T19:38:02.054Z,13.40
2022-09-30T19:43:01.124Z,13.30
2022-09-30T19:48:00.107Z,13.30
2022-09-30T19:52:59.729Z,13.30
2022-09-30T19:57:57.797Z,13.20
2022-09-30T20:02:56.219Z,13.20
2022-09-30T20:07:54.382Z,13.10
2022-09-30T20:12:54.113Z,13.10
2022-09-30T20:17:54.805Z,13.00
2022-09-30T20:22:53.234Z,13.00
2022-09-30T20:27:52.657Z,12.90
2022-09-30T20:32:52.247Z,12.80
2022-09-30T20:37:51.184Z,12.80
2022-09-30T20:42:49.345Z,12.70
2022-09-30T20:47:48.006Z,12.70
2022-09-30T20:52:47.434Z,12.60
2022-09-30T20:57:45.902Z,12.60
2022-09-30T21:02:43.980Z,12.50
2022-09-30T21:07:42.298Z,12.40
2022-09-30T21:12:42.824Z,12.30
2022-09-30T21:17:42.139Z,12.20
2022-09-30T21:22:40.261Z,12.20
2022-09-30T21:27:38.420Z,12.20
2022-09-30T21:32:38.813Z,12.20
2022-09-30T21:37:37.304Z,12.10
2022-09-30T21:42:35.466Z,12.10
2022-09-30T21:47:33.495Z,12.00
2022-09-30T21:52:33.509Z,11.90
2022-09-30T21:57:31.542Z,11.90
2022-09-30T22:02:29.554Z,11.90
2022-09-30T22:07:27.815Z,12.00
2022-09-30T22:12:27.206Z,11.80
2022-09-30T22:17:25.238Z,11.70
2022-09-30T22:22:23.391Z,11.70
2022-09-30T22:27:21.951Z,11.70
2022-09-30T22:32:22.483Z,11.60
2022-09-30T22:37:47.727Z,11.60
2022-09-30T22:42:46.126Z,11.50
2022-09-30T22:47:45.601Z,11.50
2022-09-30T22:52:43.705Z,11.50
2022-09-30T22:57:42.009Z,11.40
2022-09-30T23:02:40.235Z,11.40
2022-09-30T23:07:40.707Z,11.30
2022-09-30T23:12:38.919Z,11.30
2022-09-30T23:17:37.051Z,11.20
2022-09-30T23:22:35.066Z,11.20
2022-09-30T23:27:34.717Z,11.10
2022-09-30T23:32:33.155Z,11.10
2022-09-30T23:37:31.271Z,11.00
2022-09-30T23:42:32.123Z,11.00
2022-09-30T23:47:31.589Z,11.00
2022-09-30T23:52:30.055Z,11.00
2022-09-30T23:57:28.051Z,10.80
